x

Yucatan Basin - 120 Nm Ese Of Cozumel, Mx (42056) Wave Buoy

5:50pm - Mon 1st Sep 2014 All times are CDT. -5 hours from GMT.

  • Sig Wave height 4.3ft
  • Swell Direction
  • Peak Period 7s
  • Average Period 5s
  • Wind
    16mph, 18mph gusts
  • Sea Temp 86°f
  • 空気 Temp 85°f
  • Sea Pressure 1012.2mb
  •  Yucatan Basin - 120 Nm Ese Of Cozumel, Mx
  •  Yucatan Basin - 120 Nm Ese Of Cozumel, Mx

More Historic Weather Station data

Upgrade to MSW Pro to gain access to the past 30 days of data for over 8000 Wavebouys and Weather Stations around the globe.

Join Pro

Comparision Forecast

View Surf forecast
   
Mon 09/01 5:50pm 4.5ft 7s 5s 16 18 mph 1012.2mb 86f 85f
4:50pm 4ft 7s 5s 13 16 mph 1012.7mb 86f 85f
3:50pm 4ft 7s 5s 16 18 mph 1013.2mb 86f 86f
2:50pm 4ft 6s 5s 16 18 mph 1013.9mb 86f 85f
1:50pm 4.5ft 6s 5s 13 16 mph 1014.6mb 86f 86f
12:50pm 4.5ft 8s 5s 13 16 mph 1015.2mb 86f 86f
11:50am 5ft 8s 6s 16 18 mph 1015.4mb 86f 86f
10:50am 5ft 7s 6s 16 18 mph 1015.4mb 86f 85f
9:50am 5ft 7s 6s 9 11 mph 1015.6mb 86f 85f
8:50am 5ft 7s 6s 11 13 mph 1015.2mb 85f 84f
7:50am 5ft 7s 6s 11 13 mph 1014.9mb 85f 83f
6:50am 6ft 8s 6s 20 29 mph 1014.1mb 85f 82f
5:50am 6ft 8s 6s 13 18 mph 1013.2mb 85f 85f
4:50am 6ft 8s 6s 16 18 mph 1013.2mb 85f 85f
3:50am 6ft 8s 6s 16 18 mph 1012.9mb 86f 85f
2:50am 7ft 7s 6s 16 20 mph 1012.9mb 86f 85f
1:50am 7ft 8s 6s 20 25 mph 1013.1mb 86f 85f
12:50am 7ft 8s 6s 20 25 mph 1013.1mb 86f 85f
Sun 08/31 11:50pm 7ft 7s 6s 18 22 mph 1013.5mb 86f 85f
10:50pm 6ft 7s 6s 22 27 mph 1013.3mb 86f 86f
9:50pm 7ft 8s 6s 22 27 mph 1013.1mb 86f 85f
8:50pm 7.5ft 8s 6s 20 25 mph 1013mb 86f 85f
7:50pm 6.5ft 8s 6s 22 27 mph 1012.8mb 86f 85f
6:50pm 7ft 8s 6s 22 27 mph 1012.7mb 86f 85f
5:50pm 7ft 8s 6s 25 29 mph 1012.5mb 86f 84f
4:50pm 6ft 8s 6s 11 13 mph 1012.9mb 86f 84f
3:50pm 7.5ft 8s 7s 16 18 mph 1013mb 86f 83f
2:50pm 7.5ft 8s 6s 18 20 mph 1012.6mb 86f 83f
1:50pm 7ft 8s 6s 13 16 mph 1013.2mb 86f 82f
12:50pm 7ft 8s 6s 16 18 mph 1014.3mb 86f 82f
11:50am 6.5ft 8s 6s 20 25 mph 1015.3mb 86f 81f
10:50am 7ft 7s 6s 22 27 mph 1015.1mb 85f 81f
9:50am 6ft 7s 6s 18 22 mph 1015.1mb 85f 80f
8:50am 6ft 8s 6s 18 22 mph 1015.7mb 85f 80f
7:50am 6.5ft 8s 6s 18 22 mph 1014.8mb 85f 78f
6:50am 7ft 8s 6s 27 36 mph 1013.6mb 85f 78f
5:50am 7ft 8s 6s 25 31 mph 1013.2mb 85f 80f
4:50am 6.5ft 8s 6s 18 22 mph 1012.7mb 85f 79f
3:50am 6.5ft 8s 6s 11 13 mph 1012.5mb 85f 83f
2:50am 7ft 8s 6s 18 20 mph 1012.1mb 85f 83f
1:50am 6ft 8s 6s 18 22 mph 1012.6mb 85f 84f
12:50am 6ft 8s 6s 18 20 mph 1013mb 85f 84f
Sat 08/30 11:50pm 6ft 7s 6s 18 20 mph 1013.2mb 85f 84f
10:50pm 7ft 7s 6s 18 22 mph 1013.3mb 86f 83f
9:50pm 6.5ft 8s 6s 18 22 mph 1013mb 86f 83f
8:50pm 6.5ft 7s 6s 18 22 mph 1012.6mb 86f 83f
7:50pm 6ft 7s 5s 20 25 mph 1012.4mb 86f 83f
6:50pm 6ft 7s 5s 20 25 mph 1011.8mb 86f 82f
5:50pm 5.5ft 6s 5s 22 27 mph 1011.5mb 86f 82f
4:50pm 5ft 7s 5s 16 20 mph 1011.1mb 86f 83f
3:50pm 5.5ft 7s 5s 18 22 mph 1011.4mb 86f 83f
2:50pm 5ft 6s 5s 18 20 mph 1011.6mb 86f 83f
1:50pm 6ft 6s 5s 16 20 mph 1012.2mb 86f 80f
12:50pm 5.5ft 7s 5s 16 20 mph 1012.8mb 86f 83f
11:50am 5ft 6s 5s 20 25 mph 1012.8mb 86f 84f
10:50am 5ft 7s 5s 20 25 mph 1013.4mb 86f 85f
9:50am 4.5ft 6s 5s 20 25 mph 1013.4mb 86f 85f
8:50am 5ft 6s 5s 20 25 mph 1013mb 86f 85f
7:50am 5ft 7s 5s 18 22 mph 1012.2mb 86f 85f
6:50am 4.5ft 6s 5s 20 31 mph 1012.2mb 86f 84f
5:50am 4ft 6s 5s 20 27 mph 1011.6mb 86f 85f
4:50am 4ft 6s 5s 18 20 mph 1011.6mb 86f 85f
3:50am 4ft 6s 5s 16 20 mph 1011.8mb 86f 84f
2:50am 4ft 6s 5s 18 22 mph 1011.5mb 86f 84f
1:50am 3.5ft 6s 5s 22 27 mph 1012.4mb 86f 84f
12:50am 3.5ft 6s 5s 13 16 mph 1013.3mb 86f 85f
Fri 08/29 11:50pm 3.5ft 6s 5s 11 13 mph 1013.9mb 86f 85f
10:50pm 3.5ft 6s 5s 11 13 mph 1014.2mb 86f 85f
9:50pm 4ft 6s 5s 4 7 mph 1013.2mb 86f 85f
8:50pm 3.5ft 6s 5s 7 9 mph 1013mb 86f 85f
7:50pm 4ft 6s 5s 11 13 mph 1012.4mb 86f 86f
6:50pm 4.5ft 6s 5s 11 13 mph 1011.8mb 86f 86f
5:50pm 4ft 6s 5s 11 13 mph 1011.5mb 86f 86f
4:50pm 4.5ft 6s 5s 11 13 mph 1011.4mb 86f 86f
3:50pm 4.5ft 7s 5s 11 16 mph 1011.5mb 86f 86f
2:50pm 4.5ft 6s 5s 13 18 mph 1011.8mb 86f 86f
1:50pm 5ft 6s 5s 16 18 mph 1012.1mb 86f 86f
12:50pm 5ft 6s 5s 16 18 mph 1012.7mb 86f 86f
11:50am 4.5ft 6s 5s 13 18 mph 1013mb 86f 85f
10:50am 4.5ft 6s 5s 11 18 mph 1013.5mb 86f 85f
9:50am 4.5ft 7s 5s 16 18 mph 1013.4mb 86f 84f
8:50am 4.5ft 6s 5s 16 18 mph 1013mb 86f 86f
7:50am 5ft 6s 5s 16 20 mph 1012.5mb 86f 85f
6:50am 4.5ft 6s 5s 16 20 mph 1012.3mb 86f 85f
5:50am 5ft 6s 5s 18 20 mph 1011.8mb 86f 85f
4:50am 5ft 6s 5s 20 22 mph 1011.3mb 86f 85f
3:50am 4.5ft 7s 5s 18 25 mph 1011.3mb 86f 85f
2:50am 5ft 6s 5s 18 22 mph 1011.7mb 86f 85f
1:50am 5ft 7s 5s 20 22 mph 1012.4mb 86f 85f
12:50am 5ft 7s 5s 16 20 mph 1013.1mb 86f 85f